Time;durP1;ratioP1;P1;durP2;ratioP2;P2;SDS_P1;SDS_P2;PMS_P1;PMS_P2;Temp;Humidity;BMP_temperature;BMP_pressure;BME280_temperature;BME280_humidity;BME280_pressure;Samples;Min_cycle;Max_cycle;Signal;HPM_P1;HPM_P2
2021/04/10 00:02:15;;;;;;;12.43;10.52;;;7.30;99.90;;;;;;5028798;28;20846;-81
2021/04/10 00:04:41;;;;;;;13.15;11.77;;;7.20;99.90;;;;;;5027664;28;20382;-82
2021/04/10 00:07:06;;;;;;;11.75;10.27;;;7.10;99.90;;;;;;5029916;28;20374;-81
2021/04/10 00:09:32;;;;;;;11.65;10.43;;;7.10;99.90;;;;;;5029932;28;20381;-81
2021/04/10 00:11:58;;;;;;;11.60;10.40;;;6.90;99.90;;;;;;5029979;28;20423;-81
2021/04/10 00:14:26;;;;;;;12.17;10.60;;;6.80;99.90;;;;;;5030398;28;20374;-81
2021/04/10 00:16:51;;;;;;;13.05;11.00;;;6.80;99.90;;;;;;5029960;28;20377;-81
2021/04/10 00:19:17;;;;;;;12.07;10.43;;;6.70;99.90;;;;;;5030060;28;20376;-81
2021/04/10 00:21:42;;;;;;;11.38;10.27;;;6.60;99.90;;;;;;5030511;28;20752;-81
2021/04/10 00:24:09;;;;;;;12.10;10.57;;;6.60;99.90;;;;;;5030583;28;20409;-81
2021/04/10 00:26:35;;;;;;;11.77;10.57;;;6.70;99.90;;;;;;5030574;28;20381;-81
2021/04/10 00:29:00;;;;;;;12.07;10.87;;;6.60;99.90;;;;;;5030545;28;20456;-81
2021/04/10 00:31:26;;;;;;;12.27;10.70;;;6.50;99.90;;;;;;5030618;28;20799;-81
2021/04/10 00:33:52;;;;;;;12.77;11.48;;;6.40;99.90;;;;;;5030602;28;20370;-81
2021/04/10 00:36:17;;;;;;;12.80;11.50;;;6.30;99.90;;;;;;5031027;28;20375;-81
2021/04/10 00:38:43;;;;;;;13.03;11.33;;;6.20;99.90;;;;;;5030983;28;20477;-81
2021/04/10 00:41:10;;;;;;;11.95;10.85;;;6.20;99.90;;;;;;5030783;28;20879;-81
2021/04/10 00:43:36;;;;;;;14.17;11.27;;;6.20;99.90;;;;;;5030638;28;20380;-81
2021/04/10 00:46:02;;;;;;;12.27;10.97;;;6.20;99.90;;;;;;5030874;28;20377;-81
2021/04/10 00:48:27;;;;;;;11.93;10.63;;;6.20;99.90;;;;;;5030510;28;20467;-81
2021/04/10 00:50:54;;;;;;;12.97;10.87;;;6.20;99.90;;;;;;5030115;28;20401;-81
2021/04/10 00:53:24;;;;;;;13.40;10.93;;;6.10;99.90;;;;;;5030238;28;20475;-81
2021/04/10 00:55:51;;;;;;;12.20;11.00;;;6.10;99.90;;;;;;5030284;28;20884;-81
2021/04/10 00:58:17;;;;;;;13.13;11.75;;;6.10;99.90;;;;;;5030366;28;20725;-81
2021/04/10 01:00:43;;;;;;;12.90;11.45;;;6.00;99.90;;;;;;5030238;28;20366;-81
2021/04/10 01:03:08;;;;;;;12.97;11.47;;;6.00;99.90;;;;;;5030259;28;20889;-81
2021/04/10 01:05:35;;;;;;;13.03;11.70;;;5.90;99.90;;;;;;5028942;28;20444;-81
2021/04/10 01:08:01;;;;;;;13.27;11.93;;;5.60;99.90;;;;;;5033290;28;20381;-81
2021/04/10 01:10:28;;;;;;;13.15;11.80;;;5.60;99.90;;;;;;5034346;28;20415;-81
2021/04/10 01:13:31;;;;;;;13.02;11.73;;;5.50;99.90;;;;;;5034147;28;20387;-81
2021/04/10 01:16:08;;;;;;;13.40;12.05;;;5.50;99.90;;;;;;5034196;28;20419;-81
2021/04/10 01:18:45;;;;;;;13.43;12.03;;;5.40;99.90;;;;;;5032512;28;20816;-81
2021/04/10 01:21:14;;;;;;;13.23;11.90;;;5.30;99.90;;;;;;5034301;28;20381;-81
2021/04/10 01:24:22;;;;;;;12.88;11.65;;;5.20;99.90;;;;;;5032764;28;20883;-81
2021/04/10 01:26:54;;;;;;;12.68;11.45;;;5.10;99.90;;;;;;5034077;28;20903;-80
2021/04/10 01:29:21;;;;;;;14.77;12.70;;;5.00;99.90;;;;;;5033775;28;20446;-81
2021/04/10 01:31:50;;;;;;;15.15;12.38;;;5.10;99.90;;;;;;5033638;28;20385;-81
2021/04/10 01:34:21;;;;;;;15.02;13.20;;;5.00;99.90;;;;;;5033822;28;20372;-81
2021/04/10 01:36:48;;;;;;;13.18;11.90;;;4.90;99.90;;;;;;5033745;28;20420;-81
2021/04/10 01:39:15;;;;;;;14.43;12.32;;;4.90;99.90;;;;;;5032511;28;20382;-81
2021/04/10 01:41:45;;;;;;;14.07;12.57;;;4.90;99.90;;;;;;5033742;28;20878;-81
2021/04/10 01:44:13;;;;;;;14.07;12.60;;;4.90;99.90;;;;;;5033712;28;20878;-81
2021/04/10 01:46:39;;;;;;;14.45;12.05;;;4.90;99.90;;;;;;5033609;28;20898;-81
2021/04/10 01:49:06;;;;;;;13.38;12.13;;;4.80;99.90;;;;;;5032206;28;20847;-81
2021/04/10 01:51:34;;;;;;;13.55;12.27;;;4.80;99.90;;;;;;5032124;28;20543;-81
2021/04/10 01:54:00;;;;;;;14.45;12.15;;;4.90;99.90;;;;;;5032229;28;20369;-81
2021/04/10 01:56:27;;;;;;;12.55;11.27;;;4.80;99.90;;;;;;5033313;28;20389;-81
2021/04/10 01:58:53;;;;;;;13.48;12.02;;;4.90;99.90;;;;;;5033348;28;20381;-81
2021/04/10 02:01:21;;;;;;;12.20;11.00;;;5.00;99.90;;;;;;5033415;28;20860;-81
2021/04/10 02:03:47;;;;;;;13.50;12.15;;;5.00;99.90;;;;;;5033370;28;20382;-81
2021/04/10 02:06:14;;;;;;;13.23;11.90;;;5.10;99.90;;;;;;5033181;28;20892;-81
2021/04/10 02:08:42;;;;;;;15.07;12.57;;;5.20;99.90;;;;;;5031954;28;21027;-81
2021/04/10 02:11:10;;;;;;;14.23;12.40;;;5.30;99.90;;;;;;5033039;28;20500;-81
2021/04/10 02:13:37;;;;;;;14.80;12.70;;;5.30;99.90;;;;;;5033020;28;20966;-81
2021/04/10 02:16:03;;;;;;;13.95;12.45;;;5.40;99.90;;;;;;5033446;28;20380;-81
2021/04/10 02:18:30;;;;;;;13.68;12.15;;;5.40;99.90;;;;;;5031471;28;20378;-81
2021/04/10 02:20:58;;;;;;;18.40;13.68;;;;;;;;;;5031622;28;20388;-81
2021/04/10 02:23:24;;;;;;;15.75;13.63;;;5.50;99.90;;;;;;5033125;28;20381;-81
2021/04/10 02:25:49;;;;;;;16.05;13.88;;;5.60;99.90;;;;;;5032839;28;20395;-81
2021/04/10 02:28:15;;;;;;;14.57;13.00;;;5.60;99.90;;;;;;5032430;28;20383;-81
2021/04/10 02:30:41;;;;;;;14.97;13.37;;;5.60;99.90;;;;;;5032711;28;20455;-81
2021/04/10 02:33:13;;;;;;;14.60;13.10;;;5.60;99.90;;;;;;5032674;28;20850;-81
2021/04/10 02:35:53;;;;;;;15.07;13.48;;;5.70;99.90;;;;;;5032680;28;20396;-81
2021/04/10 02:38:21;;;;;;;14.82;13.32;;;5.70;99.90;;;;;;5032621;28;20384;-80
2021/04/10 02:40:50;;;;;;;13.40;12.00;;;5.80;99.90;;;;;;5032575;28;20740;-81
2021/04/10 02:43:24;;;;;;;13.38;12.07;;;5.80;99.90;;;;;;5032555;28;20369;-80
2021/04/10 02:45:53;;;;;;;13.07;11.73;;;5.90;99.90;;;;;;5032327;28;20464;-81
2021/04/10 02:48:24;;;;;;;12.47;11.27;;;5.90;99.90;;;;;;5032552;28;20403;-81
2021/04/10 02:50:54;;;;;;;12.65;11.32;;;6.00;99.90;;;;;;5032425;28;20404;-81
2021/04/10 02:53:22;;;;;;;11.30;10.20;;;6.00;99.90;;;;;;5032449;28;20903;-81
2021/04/10 02:55:52;;;;;;;12.20;10.85;;;6.10;99.90;;;;;;5032456;28;20396;-81
2021/04/10 02:58:21;;;;;;;12.90;11.60;;;6.10;99.90;;;;;;5032433;28;20402;-81
2021/04/10 03:00:48;;;;;;;12.10;10.90;;;6.10;99.90;;;;;;5030957;28;20480;-81
2021/04/10 03:03:15;;;;;;;13.30;12.10;;;6.10;99.90;;;;;;5032318;28;20385;-81
2021/04/10 03:05:43;;;;;;;14.02;12.68;;;6.20;99.90;;;;;;5032130;28;20385;-81
2021/04/10 03:08:14;;;;;;;14.07;12.63;;;6.10;99.90;;;;;;5030517;28;20423;-81
2021/04/10 03:10:40;;;;;;;14.70;13.20;;;6.10;99.90;;;;;;5031909;28;20428;-81
2021/04/10 03:13:06;;;;;;;14.63;13.02;;;6.00;99.90;;;;;;5031773;28;20369;-81
2021/04/10 03:15:31;;;;;;;14.43;12.70;;;5.90;99.90;;;;;;5030645;28;20876;-81
2021/04/10 03:17:57;;;;;;;17.30;15.10;;;5.90;99.90;;;;;;5030551;28;20409;-81
2021/04/10 03:20:25;;;;;;;15.55;13.30;;;5.80;99.90;;;;;;5031755;28;20381;-81
2021/04/10 03:22:50;;;;;;;13.95;12.55;;;5.80;99.90;;;;;;5031720;28;20376;-81
2021/04/10 03:25:17;;;;;;;16.10;14.60;;;5.70;99.90;;;;;;5032260;28;20369;-81
2021/04/10 03:27:43;;;;;;;16.40;14.35;;;5.60;99.90;;;;;;5030114;28;20396;-81
2021/04/10 03:30:11;;;;;;;15.38;13.60;;;5.50;99.90;;;;;;5031184;28;20377;-81
2021/04/10 03:32:38;;;;;;;17.00;15.38;;;5.50;99.90;;;;;;5031442;28;20395;-80
2021/04/10 03:35:04;;;;;;;18.52;16.52;;;5.60;99.90;;;;;;5031542;28;20440;-80
2021/04/10 03:37:31;;;;;;;16.08;14.32;;;5.70;99.90;;;;;;5030921;28;20901;-81
2021/04/10 03:39:58;;;;;;;15.32;13.82;;;5.70;99.90;;;;;;5031289;28;20408;-81
2021/04/10 03:42:43;;;;;;;17.25;14.88;;;5.80;99.90;;;;;;5031116;28;20381;-81
2021/04/10 03:45:20;;;;;;;17.02;15.32;;;5.80;99.90;;;;;;5031159;28;20409;-81
2021/04/10 03:47:46;;;;;;;17.17;15.30;;;5.80;99.90;;;;;;5031244;28;20409;-81
2021/04/10 03:50:13;;;;;;;16.38;14.68;;;5.80;99.90;;;;;;5031037;28;20373;-81
2021/04/10 03:52:39;;;;;;;18.85;15.90;;;5.80;99.90;;;;;;5031204;28;20366;-81
2021/04/10 03:55:06;;;;;;;20.05;17.08;;;5.70;99.90;;;;;;5031180;28;20426;-81
2021/04/10 03:57:33;;;;;;;17.75;16.05;;;5.70;99.90;;;;;;5031087;28;20847;-81
2021/04/10 03:59:59;;;;;;;18.10;16.20;;;5.70;99.90;;;;;;5031068;28;20369;-81
2021/04/10 04:02:25;;;;;;;19.63;17.63;;;5.70;99.90;;;;;;5031012;28;20449;-81
2021/04/10 04:04:51;;;;;;;20.67;16.80;;;5.70;99.90;;;;;;5031021;28;20427;-81
2021/04/10 04:07:17;;;;;;;16.70;14.68;;;5.70;99.90;;;;;;5030921;28;20366;-81
2021/04/10 04:09:42;;;;;;;16.05;14.35;;;5.70;99.90;;;;;;5030766;28;20880;-80
2021/04/10 04:12:09;;;;;;;15.52;13.98;;;5.70;99.90;;;;;;5030677;28;20416;-81
2021/04/10 04:14:35;;;;;;;18.08;16.20;;;5.70;99.90;;;;;;5030878;28;20365;-81
2021/04/10 04:17:01;;;;;;;18.23;16.27;;;5.80;99.90;;;;;;5030272;28;20378;-80
2021/04/10 04:19:27;;;;;;;21.23;16.63;;;5.90;99.90;;;;;;5029350;28;20382;-81
2021/04/10 04:21:53;;;;;;;18.13;15.27;;;5.90;99.90;;;;;;5030884;28;20782;-81
2021/04/10 04:24:18;;;;;;;19.50;17.37;;;6.00;99.90;;;;;;5030785;28;20495;-80
2021/04/10 04:26:44;;;;;;;18.85;16.85;;;5.90;99.90;;;;;;5030672;28;20417;-81
2021/04/10 04:29:09;;;;;;;17.17;15.37;;;5.90;99.90;;;;;;5030736;28;20385;-81
2021/04/10 04:31:35;;;;;;;19.53;17.43;;;6.00;99.90;;;;;;5030474;28;20393;-80
2021/04/10 04:34:00;;;;;;;20.80;18.58;;;6.10;99.90;;;;;;5030563;28;20385;-81
2021/04/10 04:36:26;;;;;;;17.63;15.90;;;6.10;99.90;;;;;;5029193;28;20373;-81
2021/04/10 04:38:52;;;;;;;18.43;16.50;;;6.10;99.90;;;;;;5030360;28;20779;-80
2021/04/10 04:41:17;;;;;;;18.13;16.30;;;6.10;99.90;;;;;;5029783;28;20373;-80
2021/04/10 04:43:43;;;;;;;18.42;16.52;;;6.10;99.90;;;;;;5030427;28;20439;-80
2021/04/10 04:46:09;;;;;;;17.90;16.10;;;6.10;99.90;;;;;;5030348;28;20435;-81
2021/04/10 04:48:34;;;;;;;17.57;15.77;;;6.20;99.90;;;;;;5030348;28;20373;-81
2021/04/10 04:51:00;;;;;;;19.83;17.50;;;6.30;99.90;;;;;;5030246;28;20397;-81
2021/04/10 04:53:25;;;;;;;17.50;15.87;;;6.20;99.90;;;;;;5030272;28;20467;-81
2021/04/10 04:55:51;;;;;;;18.70;16.80;;;6.30;99.90;;;;;;5030324;28;20844;-80
2021/04/10 04:58:16;;;;;;;19.53;17.50;;;6.40;99.90;;;;;;5030199;28;20378;-81
2021/04/10 05:00:42;;;;;;;19.97;17.97;;;6.40;99.90;;;;;;5030210;28;20374;-81
2021/04/10 05:03:07;;;;;;;20.42;18.42;;;6.40;99.90;;;;;;5030110;28;20421;-81
2021/04/10 05:05:33;;;;;;;19.80;17.80;;;6.40;99.90;;;;;;5029044;28;20412;-81
2021/04/10 05:07:59;;;;;;;19.80;17.70;;;6.30;99.90;;;;;;5030004;28;20898;-81
2021/04/10 05:10:24;;;;;;;16.63;14.93;;;6.30;99.90;;;;;;5030049;28;20447;-81
2021/04/10 05:12:52;;;;;;;17.02;15.07;;;6.30;99.90;;;;;;5030189;28;20459;-81
2021/04/10 05:15:18;;;;;;;20.33;16.75;;;6.40;99.90;;;;;;5030081;28;20380;-81
2021/04/10 05:17:44;;;;;;;18.75;15.85;;;6.40;99.90;;;;;;5029835;28;20713;-81
2021/04/10 05:20:10;;;;;;;15.73;13.95;;;6.50;99.90;;;;;;5029845;28;20495;-81
2021/04/10 05:22:35;;;;;;;16.33;14.65;;;6.60;99.90;;;;;;5028723;28;20381;-81
2021/04/10 05:25:02;;;;;;;15.88;13.02;;;6.60;99.90;;;;;;5029899;28;20373;-81
2021/04/10 05:27:27;;;;;;;15.68;12.70;;;6.60;99.90;;;;;;5029798;28;20416;-81
2021/04/10 05:29:53;;;;;;;18.67;15.13;;;6.60;99.90;;;;;;5029894;28;20413;-80
2021/04/10 05:32:19;;;;;;;16.17;13.93;;;6.50;99.90;;;;;;5028990;28;20389;-80
2021/04/10 05:34:44;;;;;;;16.25;13.13;;;6.50;99.90;;;;;;5030246;28;20428;-81
2021/04/10 05:37:10;;;;;;;17.87;13.73;;;6.30;99.90;;;;;;5029944;28;20385;-81
2021/04/10 05:39:35;;;;;;;17.30;14.13;;;6.30;99.90;;;;;;5029992;28;20380;-81
2021/04/10 05:42:02;;;;;;;18.00;14.18;;;6.30;99.90;;;;;;5028739;28;20392;-81
2021/04/10 05:44:28;;;;;;;16.70;13.38;;;6.30;99.90;;;;;;5029926;28;20420;-80
2021/04/10 05:46:53;;;;;;;15.10;13.33;;;6.20;99.90;;;;;;5029845;28;20381;-81
2021/04/10 05:49:19;;;;;;;15.90;12.30;;;6.20;99.90;;;;;;5029600;28;20377;-81
2021/04/10 05:51:44;;;;;;;18.15;12.63;;;6.20;99.90;;;;;;5029798;28;20516;-80
2021/04/10 05:54:10;;;;;;;14.77;12.02;;;6.10;99.90;;;;;;5032987;28;20419;-81
2021/04/10 05:56:36;;;;;;;19.03;11.80;;;6.30;99.90;;;;;;5033358;28;20852;-80
2021/04/10 05:59:02;;;;;;;16.63;11.60;;;6.30;99.90;;;;;;5033134;28;20415;-81
2021/04/10 06:01:28;;;;;;;15.48;11.93;;;6.40;99.90;;;;;;5033100;28;20813;-81
2021/04/10 06:03:57;;;;;;;21.97;12.40;;;6.40;99.90;;;;;;5033056;28;20376;-81
2021/04/10 06:06:22;;;;;;;17.58;12.45;;;6.40;99.90;;;;;;5033160;28;20377;-81
2021/04/10 06:08:49;;;;;;;18.98;12.57;;;6.30;99.90;;;;;;5031938;28;20879;-81
2021/04/10 06:11:15;;;;;;;20.15;12.95;;;6.40;99.90;;;;;;5032808;28;20401;-81
2021/04/10 06:13:40;;;;;;;23.73;14.07;;;6.30;99.90;;;;;;5033528;28;20373;-79
2021/04/10 06:16:10;;;;;;;17.97;14.47;;;6.30;99.90;;;;;;5033082;28;20377;-80
2021/04/10 06:18:36;;;;;;;19.42;14.13;;;6.30;99.90;;;;;;5033346;28;20827;-80
2021/04/10 06:21:02;;;;;;;19.08;13.13;;;6.30;99.90;;;;;;5033134;28;20420;-81
2021/04/10 06:23:28;;;;;;;14.77;12.63;;;6.30;99.90;;;;;;5032941;28;20377;-80
2021/04/10 06:25:53;;;;;;;17.53;12.33;;;6.30;99.90;;;;;;5033037;28;20389;-81
2021/04/10 06:28:19;;;;;;;18.20;13.32;;;6.40;99.90;;;;;;5032727;28;20839;-81
2021/04/10 06:30:45;;;;;;;20.42;12.73;;;6.30;99.90;;;;;;5032698;28;20480;-81
2021/04/10 06:33:10;;;;;;;16.50;13.03;;;6.30;99.90;;;;;;5032820;28;20973;-81
2021/04/10 06:35:36;;;;;;;20.93;13.50;;;6.30;99.90;;;;;;5032933;28;20475;-80
2021/04/10 06:38:02;;;;;;;17.73;12.25;;;6.30;99.90;;;;;;5032550;28;20381;-81
2021/04/10 06:40:30;;;;;;;18.10;11.45;;;6.40;99.90;;;;;;5032551;28;20456;-81
2021/04/10 06:42:57;;;;;;;17.98;11.50;;;6.40;99.90;;;;;;5032595;28;20381;-81
2021/04/10 06:45:23;;;;;;;17.77;10.27;;;6.40;99.90;;;;;;5032197;28;20392;-81
2021/04/10 06:47:52;;;;;;;14.52;9.43;;;6.40;99.90;;;;;;5032583;28;20461;-82
2021/04/10 06:50:18;;;;;;;18.45;9.30;;;6.40;99.90;;;;;;5032334;28;20377;-81
2021/04/10 06:52:45;;;;;;;14.68;8.70;;;6.50;99.90;;;;;;5031412;28;20392;-81
2021/04/10 06:55:17;;;;;;;11.80;7.75;;;6.70;99.90;;;;;;5031179;28;20902;-81
2021/04/10 06:58:05;;;;;;;14.57;7.18;;;6.80;99.90;;;;;;5032148;28;20373;-81
2021/04/10 07:00:32;;;;;;;18.85;8.82;;;6.90;99.90;;;;;;5030770;28;20803;-82
2021/04/10 07:03:02;;;;;;;13.55;6.82;;;6.90;99.90;;;;;;5032094;28;20378;-81
2021/04/10 07:05:29;;;;;;;17.92;6.78;;;7.00;99.90;;;;;;5031505;28;20381;-81
2021/04/10 07:07:55;;;;;;;16.33;6.65;;;6.90;99.90;;;;;;5032026;28;20399;-81
2021/04/10 07:10:21;;;;;;;15.98;6.57;;;6.90;99.90;;;;;;5032078;28;20370;-81
2021/04/10 07:12:47;;;;;;;14.10;6.13;;;6.90;99.90;;;;;;5032053;28;20369;-81
2021/04/10 07:15:16;;;;;;;15.57;6.20;;;6.90;99.90;;;;;;5026074;28;20493;-85
2021/04/10 07:17:42;;;;;;;18.02;6.80;;;7.10;99.90;;;;;;5030632;28;20802;-85
2021/04/10 07:20:21;;;;;;;17.83;6.80;;;7.10;99.90;;;;;;5031992;28;20385;-84
2021/04/10 07:22:57;;;;;;;14.40;6.10;;;7.20;99.90;;;;;;5030897;28;20476;-85
2021/04/10 07:25:24;;;;;;;16.20;7.50;;;7.10;99.90;;;;;;5028023;28;20408;-89
2021/04/10 07:27:50;;;;;;;14.00;6.03;;;7.10;99.90;;;;;;5032171;28;20452;-84
2021/04/10 07:30:16;;;;;;;16.42;6.13;;;7.20;99.90;;;;;;5029993;28;20384;-84
2021/04/10 07:32:42;;;;;;;14.82;5.63;;;7.20;99.90;;;;;;5031275;28;20373;-80
2021/04/10 07:35:10;;;;;;;12.60;5.82;;;7.30;99.90;;;;;;5023866;28;20395;-80
2021/04/10 07:37:50;;;;;;;15.30;5.80;;;7.30;99.90;;;;;;5012512;28;20379;-80
2021/04/10 07:40:22;;;;;;;16.83;6.00;;;7.40;99.90;;;;;;5029778;28;20452;-80
2021/04/10 07:42:48;;;;;;;17.13;6.40;;;7.50;99.90;;;;;;5021684;28;20386;-80
2021/04/10 07:45:32;;;;;;;15.68;6.00;;;7.40;99.90;;;;;;5031260;28;20369;-80
2021/04/10 07:48:10;;;;;;;12.75;6.13;;;7.40;99.90;;;;;;5031074;28;20374;-80
2021/04/10 07:50:37;;;;;;;14.68;6.45;;;7.40;99.90;;;;;;5031187;28;20763;-79
2021/04/10 07:53:24;;;;;;;17.92;6.40;;;7.50;99.90;;;;;;5031065;28;20369;-80
2021/04/10 07:55:52;;;;;;;15.27;5.85;;;7.40;99.90;;;;;;5031044;28;20362;-80
2021/04/10 07:58:22;;;;;;;12.65;5.25;;;7.50;99.90;;;;;;5030750;28;20369;-80
2021/04/10 08:00:49;;;;;;;18.27;6.13;;;7.70;99.90;;;;;;5030931;28;20376;-81
2021/04/10 08:03:29;;;;;;;15.70;5.60;;;7.80;99.90;;;;;;5030949;28;20380;-80
2021/04/10 08:06:12;;;;;;;15.25;5.15;;;7.80;99.90;;;;;;5029824;28;20751;-80
2021/04/10 08:08:58;;;;;;;15.10;5.55;;;7.90;99.90;;;;;;5030760;28;20388;-80
2021/04/10 08:11:33;;;;;;;15.23;5.80;;;7.80;99.90;;;;;;5029665;28;20933;-79
2021/04/10 08:14:01;;;;;;;15.18;5.68;;;7.80;99.90;;;;;;5031956;28;20369;-79
2021/04/10 08:16:28;;;;;;;12.48;5.10;;;7.90;99.90;;;;;;5029611;28;20473;-79
2021/04/10 08:18:55;;;;;;;17.13;5.57;;;7.90;99.90;;;;;;5030473;28;20844;-81
2021/04/10 08:21:22;;;;;;;14.38;5.80;;;7.70;99.90;;;;;;5025356;28;20395;-81
2021/04/10 08:23:48;;;;;;;15.18;5.95;;;7.70;99.90;;;;;;5009822;28;20857;-82
2021/04/10 08:26:15;;;;;;;16.45;5.75;;;7.80;99.90;;;;;;5015984;28;20473;-81
2021/04/10 08:28:41;;;;;;;17.05;5.85;;;8.00;99.90;;;;;;5030611;28;20369;-82
2021/04/10 08:31:08;;;;;;;18.08;5.40;;;8.20;99.90;;;;;;5030303;28;20405;-80
2021/04/10 08:33:34;;;;;;;15.18;5.65;;;8.30;99.90;;;;;;5023750;28;20379;-81
2021/04/10 08:36:04;;;;;;;14.60;5.68;;;8.30;99.90;;;;;;5010745;28;20387;-81
2021/04/10 08:38:32;;;;;;;10.15;4.72;;;8.30;99.90;;;;;;5011701;28;20413;-81
2021/04/10 08:41:03;;;;;;;15.25;5.63;;;8.50;99.90;;;;;;5024558;28;20385;-80
2021/04/10 08:43:30;;;;;;;14.68;5.50;;;8.70;99.90;;;;;;5025124;28;20433;-81
2021/04/10 08:45:58;;;;;;;16.17;5.57;;;8.60;99.90;;;;;;5016208;28;20394;-80
2021/04/10 08:48:25;;;;;;;12.80;5.10;;;8.60;99.90;;;;;;5009536;28;20777;-81
2021/04/10 08:50:55;;;;;;;14.70;5.43;;;8.80;99.90;;;;;;5010400;28;20403;-81
2021/04/10 08:53:31;;;;;;;12.38;5.22;;;8.80;99.90;;;;;;5015225;28;20383;-81
2021/04/10 08:55:57;;;;;;;15.00;5.68;;;9.00;99.90;;;;;;5015679;28;20389;-81
2021/04/10 08:58:30;;;;;;;14.02;4.97;;;9.40;99.90;;;;;;5018694;28;20391;-81
2021/04/10 09:01:04;;;;;;;15.40;5.32;;;9.70;99.90;;;;;;5013633;28;20460;-81
2021/04/10 09:03:45;;;;;;;13.30;4.90;;;10.00;99.90;;;;;;5019390;28;20388;-81
2021/04/10 09:06:34;;;;;;;10.52;5.05;;;10.10;99.90;;;;;;5030156;28;20382;-81
2021/04/10 09:09:14;;;;;;;10.15;4.47;;;10.40;99.90;;;;;;5006931;28;20409;-81
2021/04/10 09:11:49;;;;;;;12.98;4.78;;;10.40;99.90;;;;;;5010325;28;20490;-81
2021/04/10 09:14:45;;;;;;;10.32;4.18;;;10.60;99.90;;;;;;5011675;28;20395;-81
2021/04/10 09:17:10;;;;;;;8.15;4.00;;;10.70;99.90;;;;;;5030293;28;20407;-81
2021/04/10 09:19:37;;;;;;;10.18;4.60;;;10.90;99.90;;;;;;5029051;28;20397;-80
2021/04/10 09:22:03;;;;;;;9.80;4.53;;;11.00;99.90;;;;;;5029678;28;20384;-82
2021/04/10 09:24:49;;;;;;;11.50;4.73;;;10.50;99.90;;;;;;5023979;28;20573;-81
2021/04/10 09:27:24;;;;;;;13.20;4.55;;;10.30;99.90;;;;;;5018223;28;20376;-81
2021/04/10 09:30:01;;;;;;;9.63;3.60;;;10.20;99.90;;;;;;5024885;28;20401;-81
2021/04/10 09:32:34;;;;;;;7.80;3.95;;;10.30;99.90;;;;;;5012540;28;20398;-81
2021/04/10 09:35:12;;;;;;;9.55;4.15;;;10.40;99.90;;;;;;5027866;28;20373;-81
2021/04/10 09:37:38;;;;;;;9.98;4.00;;;10.70;99.90;;;;;;5033630;28;20374;-81
2021/04/10 09:40:09;;;;;;;10.23;4.15;;;10.90;99.90;;;;;;5032053;28;20384;-81
2021/04/10 09:42:38;;;;;;;11.88;4.25;;;10.50;99.90;;;;;;5032747;28;20439;-81
2021/04/10 09:45:22;;;;;;;9.17;4.17;;;10.40;99.90;;;;;;5030069;28;20397;-80
2021/04/10 09:47:54;;;;;;;9.73;4.00;;;10.60;99.90;;;;;;5032434;28;20365;-81
2021/04/10 09:50:20;;;;;;;8.13;3.78;;;11.00;99.90;;;;;;5032888;28;20380;-81
2021/04/10 09:52:54;;;;;;;7.88;3.90;;;11.30;99.90;;;;;;5032821;28;20384;-81
2021/04/10 09:55:20;;;;;;;9.95;4.22;;;11.40;99.90;;;;;;5030885;28;20373;-81
2021/04/10 09:57:53;;;;;;;9.90;3.90;;;11.30;99.90;;;;;;5032664;28;20942;-81
2021/04/10 10:00:33;;;;;;;9.30;3.20;;;11.20;99.90;;;;;;5030837;28;20381;-81
2021/04/10 10:03:00;;;;;;;5.82;2.85;;;10.90;99.90;;;;;;5028985;28;20376;-81
2021/04/10 10:05:43;;;;;;;7.63;3.10;;;10.90;99.90;;;;;;5031855;28;20374;-82
2021/04/10 10:08:11;;;;;;;7.23;3.13;;;10.90;99.90;;;;;;5031680;28;20455;-79
2021/04/10 10:10:43;;;;;;;7.28;2.90;;;11.00;99.90;;;;;;5032571;28;20914;-81
2021/04/10 10:13:17;;;;;;;7.25;2.95;;;11.20;99.90;;;;;;5039321;28;20805;-80
2021/04/10 10:15:44;;;;;;;7.38;3.03;;;11.30;99.90;;;;;;5032415;28;20370;-82
2021/04/10 10:18:22;;;;;;;8.70;3.20;;;11.60;99.90;;;;;;5032329;28;20460;-81
2021/04/10 10:20:53;;;;;;;7.90;3.25;;;12.00;99.90;;;;;;5032300;28;20374;-84
2021/04/10 10:23:19;;;;;;;7.18;3.55;;;12.00;99.90;;;;;;5031579;28;20868;-85
2021/04/10 10:25:45;;;;;;;6.77;3.10;;;12.30;99.90;;;;;;5032331;28;20423;-82
2021/04/10 10:28:15;;;;;;;5.70;2.63;;;12.50;99.90;;;;;;5032203;28;20388;-82
2021/04/10 10:30:41;;;;;;;6.05;2.58;;;12.70;99.90;;;;;;5032121;28;20884;-82
2021/04/10 10:33:07;;;;;;;8.52;3.40;;;12.70;99.90;;;;;;5032164;28;20380;-82
2021/04/10 10:35:33;;;;;;;7.28;2.72;;;12.70;99.90;;;;;;5038964;28;20806;-82
2021/04/10 10:38:07;;;;;;;6.78;2.90;;;12.70;99.90;;;;;;5030216;28;20845;-82
2021/04/10 10:40:33;;;;;;;7.13;3.20;;;12.90;99.90;;;;;;5031296;28;21147;-82
2021/04/10 10:43:07;;;;;;;7.10;3.30;;;13.20;99.90;;;;;;5030952;28;20380;-83
2021/04/10 10:45:43;;;;;;;6.78;3.25;;;13.30;99.90;;;;;;5039149;28;20385;-82
2021/04/10 10:48:19;;;;;;;8.68;3.05;;;13.30;99.90;;;;;;5032196;28;20392;-83
2021/04/10 10:50:45;;;;;;;6.15;2.63;;;13.00;99.90;;;;;;5032687;28;20783;-83
2021/04/10 10:53:16;;;;;;;7.18;2.90;;;12.90;99.90;;;;;;5020645;28;20741;-83
2021/04/10 10:56:04;;;;;;;7.30;2.88;;;13.00;99.90;;;;;;5017924;28;20887;-83
2021/04/10 10:58:43;;;;;;;8.65;2.88;;;12.70;99.90;;;;;;5028327;28;20384;-83
2021/04/10 11:01:15;;;;;;;7.72;3.35;;;12.80;99.90;;;;;;5030527;28;20927;-83
2021/04/10 11:03:51;;;;;;;8.77;4.00;;;12.40;99.90;;;;;;5017736;28;20393;-82
2021/04/10 11:06:19;;;;;;;9.15;4.45;;;12.20;99.90;;;;;;5030045;28;20385;-82
2021/04/10 11:08:46;;;;;;;10.63;4.45;;;12.00;99.90;;;;;;5013915;28;20746;-82
2021/04/10 11:11:13;;;;;;;10.50;4.43;;;11.90;99.90;;;;;;5032492;28;20390;-83
2021/04/10 11:13:44;;;;;;;10.52;4.07;;;11.80;99.90;;;;;;5019910;28;20793;-82
2021/04/10 11:16:11;;;;;;;9.60;4.70;;;11.80;99.90;;;;;;5031461;28;20385;-82
2021/04/10 11:18:36;;;;;;;10.13;4.40;;;11.80;99.90;;;;;;5028459;28;20449;-83
2021/04/10 11:21:20;;;;;;;11.90;4.27;;;11.90;99.90;;;;;;5012474;28;20383;-82
2021/04/10 11:23:56;;;;;;;14.52;5.40;;;12.00;99.90;;;;;;5024931;28;20418;-88
2021/04/10 11:26:42;;;;;;;10.40;4.63;;;11.50;99.90;;;;;;5015663;28;20395;-83
2021/04/10 11:29:18;;;;;;;13.27;5.40;;;;;;;;;;5020359;28;20381;-85
2021/04/10 11:31:45;;;;;;;13.00;5.00;;;;;;;;;;5030965;28;20915;-88
2021/04/10 11:34:27;;;;;;;12.35;4.47;;;;;;;;;;5022242;28;20748;-86
2021/04/10 11:36:57;;;;;;;13.30;4.87;;;;;;;;;;5013311;28;20426;-87
2021/04/10 11:39:24;;;;;;;10.45;4.50;;;;;;;;;;5027732;28;20476;-87
2021/04/10 11:41:50;;;;;;;13.15;5.38;;;;;;;;;;5030797;28;20454;-87
2021/04/10 11:44:16;;;;;;;12.57;5.13;;;;;;;;;;5031752;28;20415;-84
2021/04/10 11:46:44;;;;;;;10.20;4.78;;;;;;;;;;5031478;28;20373;-86
2021/04/10 11:49:32;;;;;;;11.32;4.80;;;;;;;;;;5032095;28;20727;-87
2021/04/10 11:52:10;;;;;;;12.00;4.77;;;;;;;;;;5027813;28;20448;-85
2021/04/10 11:54:37;;;;;;;10.82;4.90;;;;;;;;;;5029458;28;20376;-85
2021/04/10 11:57:03;;;;;;;12.93;4.80;;;;;;;;;;5031486;28;20373;-86
2021/04/10 11:59:40;;;;;;;16.05;5.28;;;;;;;;;;5036809;28;20388;-85
2021/04/10 12:02:06;;;;;;;11.18;4.38;;;;;;;;;;5031312;28;20392;-87
2021/04/10 12:04:38;;;;;;;10.97;4.70;;;;;;;;;;5030995;28;20875;-91
2021/04/10 12:07:08;;;;;;;10.82;4.70;;;;;;;;;;5029256;28;20377;-86
2021/04/10 12:09:37;;;;;;;9.60;4.60;;;;;;;;;;5034777;28;20362;-89
2021/04/10 12:12:05;;;;;;;12.10;4.90;;;;;;;;;;5034020;28;20402;-88
2021/04/10 12:14:31;;;;;;;11.02;5.03;;;;;;;;;;5034046;28;20390;-86
2021/04/10 12:16:57;;;;;;;11.23;4.88;;;;;;;;;;5034420;28;20385;-86
2021/04/10 12:19:24;;;;;;;12.52;4.20;;;;;;;;;;5034028;28;20381;-86
2021/04/10 12:21:50;;;;;;;10.07;4.40;;;;;;;;;;5033633;28;20905;-89
2021/04/10 12:24:18;;;;;;;11.30;4.63;;;;;;;;;;5023908;28;20387;-86
2021/04/10 12:26:44;;;;;;;11.70;4.55;;;;;;;;;;5026693;28;20373;-88
2021/04/10 12:29:10;;;;;;;8.65;4.10;;;;;;;;;;5031857;28;20416;-88
2021/04/10 12:31:36;;;;;;;11.00;4.50;;;;;;;;;;5030400;28;20458;-86
2021/04/10 12:34:02;;;;;;;9.60;4.20;;;;;;;;;;5032365;28;20357;-87
2021/04/10 12:36:28;;;;;;;11.23;4.70;;;;;;;;;;5030437;28;20748;-87
2021/04/10 12:38:55;;;;;;;8.68;4.60;;;;;;;;;;5029267;28;20388;-90
2021/04/10 12:41:21;;;;;;;11.00;4.40;;;;;;;;;;5032062;28;20381;-90
2021/04/10 12:43:47;;;;;;;9.43;4.15;;;;;;;;;;5032011;28;20365;-86
2021/04/10 12:46:13;;;;;;;10.47;4.20;;;;;;;;;;5032306;28;20439;-86
2021/04/10 12:48:39;;;;;;;11.98;4.43;;;;;;;;;;5021143;28;20394;-90
2021/04/10 12:51:05;;;;;;;12.70;4.70;;;;;;;;;;5013324;28;20768;-90
2021/04/10 12:53:31;;;;;;;13.02;4.75;;;;;;;;;;5025916;28;20383;-88
2021/04/10 12:55:57;;;;;;;11.07;4.63;;;;;;;;;;5020206;28;20377;-89
2021/04/10 12:58:23;;;;;;;12.43;4.47;;;;;;;;;;5031105;28;20910;-86
2021/04/10 13:00:51;;;;;;;9.07;4.20;;;;;;;;;;5028454;28;20406;-90
2021/04/10 13:03:17;;;;;;;10.05;4.07;;;;;;;;;;5016956;28;20388;-88